Time;durP1;ratioP1;P1;durP2;ratioP2;P2;SDS_P1;SDS_P2;PMS_P1;PMS_P2;Temp;Humidity;BMP_temperature;BMP_pressure;BME280_temperature;BME280_humidity;BME280_pressure;Samples;Min_cycle;Max_cycle;Signal;HPM_P1;HPM_P2
2021/01/03 00:06:55;;;;;;;115.7;85.2;;;;;;;-0.73;87.95801;98574.85;;;;
2021/01/03 00:16:53;;;;;;;125.1;90.7;;;;;;;-0.84;87.66211;98567.78;;;;
2021/01/03 00:26:51;;;;;;;112.4;84.3;;;;;;;-1.01;88.20898;98575.61;;;;
2021/01/03 00:36:48;;;;;;;142.2;105.1;;;;;;;-0.99;88.15625;98583.33;;;;
2021/01/03 00:46:46;;;;;;;108.9;82.9;;;;;;;-0.94;87.90234;98585.28;;;;
2021/01/03 00:56:43;;;;;;;100.9;80;;;;;;;-0.93;87.87402;98574.45;;;;
2021/01/03 01:06:41;;;;;;;145.1;102.3;;;;;;;-0.91;87.96289;98566.3;;;;
2021/01/03 01:16:38;;;;;;;116.7;88.8;;;;;;;-0.89;87.9248;98553.63;;;;
2021/01/03 01:26:36;;;;;;;117.4;86.8;;;;;;;-1.01;88.00098;98535.95;;;;
2021/01/03 01:36:33;;;;;;;106;73.8;;;;;;;-1.14;88.71777;98530.92;;;;
2021/01/03 01:46:36;;;;;;;92.6;70.6;;;;;;;-1.07;88.83105;98531.59;;;;
2021/01/03 01:56:39;;;;;;;113.2;76.9;;;;;;;-1.04;88.75781;98527.67;;;;
2021/01/03 02:06:26;;;;;;;69.8;52.1;;;;;;;-0.94;89.46777;98508.58;;;;
2021/01/03 02:16:23;;;;;;;60.3;46.6;;;;;;;-0.84;89.91699;98498.19;;;;
2021/01/03 02:26:21;;;;;;;55.9;36.8;;;;;;;-0.8;89.68359;98504.62;;;;
2021/01/03 02:36:18;;;;;;;47.5;38.3;;;;;;;-0.78;89.45703;98486.66;;;;
2021/01/03 02:46:16;;;;;;;63.8;42;;;;;;;-0.84;89.63281;98484.96;;;;
2021/01/03 02:56:14;;;;;;;60;43.7;;;;;;;-0.84;89.64355;98469.09;;;;
2021/01/03 03:06:11;;;;;;;51.1;39.8;;;;;;;-0.68;90.14746;98463.83;;;;
2021/01/03 03:16:09;;;;;;;53.5;39.3;;;;;;;-0.53;89.85156;98442.13;;;;
2021/01/03 03:26:06;;;;;;;52.7;39.3;;;;;;;-0.56;89.18652;98426.72;;;;
2021/01/03 03:36:04;;;;;;;46.1;32.6;;;;;;;-0.65;89.33203;98417.55;;;;
2021/01/03 03:46:02;;;;;;;46.8;35.8;;;;;;;-0.49;88.62988;98413.33;;;;
2021/01/03 03:56:02;;;;;;;52.4;38.4;;;;;;;-0.59;88.45996;98390.93;;;;
2021/01/03 04:05:57;;;;;;;44.7;38.5;;;;;;;-0.75;89.06055;98418.19;;;;
2021/01/03 04:15:55;;;;;;;48.8;35.3;;;;;;;-0.58;89.13965;98397.03;;;;
2021/01/03 04:25:52;;;;;;;42;35.7;;;;;;;-0.55;88.70898;98400;;;;
2021/01/03 04:35:50;;;;;;;40;34.5;;;;;;;-0.55;88.0625;98389.41;;;;
2021/01/03 04:45:47;;;;;;;34.7;28.6;;;;;;;-0.72;88.20117;98395.73;;;;
2021/01/03 04:55:45;;;;;;;43.7;31.9;;;;;;;-0.69;89.22656;98384.67;;;;
2021/01/03 05:05:43;;;;;;;45.1;29.4;;;;;;;-0.73;87.96875;98389.64;;;;
2021/01/03 05:15:40;;;;;;;42.2;28.9;;;;;;;-0.89;88.37402;98381.69;;;;
2021/01/03 05:25:38;;;;;;;44.3;34.8;;;;;;;-0.82;88.4209;98384.98;;;;
2021/01/03 05:35:35;;;;;;;39.4;31.5;;;;;;;-0.87;88.92676;98388.37;;;;
2021/01/03 05:45:33;;;;;;;40;30.4;;;;;;;-0.84;88.54883;98387.08;;;;
2021/01/03 05:55:31;;;;;;;43.6;30.4;;;;;;;-0.87;88.38965;98377.79;;;;
2021/01/03 06:05:28;;;;;;;44.8;32;;;;;;;-0.94;88.54883;98392.2;;;;
2021/01/03 06:15:26;;;;;;;58.1;43.7;;;;;;;-1.02;88.69629;98380.16;;;;
2021/01/03 06:25:24;;;;;;;53.3;40.2;;;;;;;-1.14;88.23438;98371.47;;;;
2021/01/03 06:35:21;;;;;;;50.4;33.6;;;;;;;-1.31;87.95801;98375.91;;;;
2021/01/03 06:45:45;;;;;;;43.1;35.1;;;;;;;-1.33;89.2998;98336.52;;;;
2021/01/03 06:55:16;;;;;;;50.2;36.8;;;;;;;-1.18;89.52832;98344.7;;;;
2021/01/03 07:05:14;;;;;;;44.7;33.8;;;;;;;-0.88;90.94629;98354.2;;;;
2021/01/03 07:15:12;;;;;;;41.4;34.7;;;;;;;-0.66;91.19141;98352.46;;;;
2021/01/03 07:25:16;;;;;;;45.4;34.8;;;;;;;-0.56;91.09375;98334.9;;;;
2021/01/03 07:35:07;;;;;;;48.1;31.9;;;;;;;-0.17;90.48535;98346.29;;;;
2021/01/03 07:45:05;;;;;;;39.5;33.1;;;;;;;0.2;89.58691;98353.67;;;;
2021/01/03 07:55:03;;;;;;;65;43.4;;;;;;;0.43;88.6582;98364.02;;;;
2021/01/03 08:05:03;;;;;;;38.3;32.4;;;;;;;0.58;87.96289;98374;;;;
2021/01/03 08:15:07;;;;;;;56;38.6;;;;;;;0.69;88.11914;98379.18;;;;
2021/01/03 08:24:56;;;;;;;55.2;39.4;;;;;;;0.34;88.40918;98376.91;;;;
2021/01/03 08:34:54;;;;;;;47.2;34;;;;;;;0.76;88.05664;98382.44;;;;
2021/01/03 08:44:52;;;;;;;38.7;33.2;;;;;;;0.94;86.59766;98395.34;;;;
2021/01/03 08:54:49;;;;;;;33.9;30.4;;;;;;;0.97;87.04492;98405.45;;;;
2021/01/03 09:04:47;;;;;;;43.8;35.8;;;;;;;1.19;86.39355;98412.56;;;;
2021/01/03 09:14:45;;;;;;;55.1;44.2;;;;;;;1.21;86.59668;98397.2;;;;
2021/01/03 09:24:43;;;;;;;57;44.5;;;;;;;1.64;86.7959;98397.03;;;;
2021/01/03 09:34:41;;;;;;;48.1;37.6;;;;;;;1.85;84.99609;98405.94;;;;
2021/01/03 09:44:39;;;;;;;37.8;33.9;;;;;;;1.74;84.25781;98418.35;;;;
2021/01/03 09:54:37;;;;;;;39.5;32.9;;;;;;;1.7;84.85742;98406.63;;;;
2021/01/03 10:04:35;;;;;;;41.8;32.6;;;;;;;1.91;83.30957;98411.03;;;;
2021/01/03 10:14:33;;;;;;;76.3;53.5;;;;;;;2.04;83.68848;98388.55;;;;
2021/01/03 10:24:31;;;;;;;61.5;46.6;;;;;;;1.87;84.17383;98359.48;;;;
2021/01/03 10:34:29;;;;;;;46.1;35.9;;;;;;;1.87;84.48145;98385.25;;;;
2021/01/03 10:44:27;;;;;;;47.2;39.3;;;;;;;2.1;83.42285;98381.38;;;;
2021/01/03 10:54:25;;;;;;;56.5;40.1;;;;;;;1.86;84.03809;98384.45;;;;
2021/01/03 11:04:23;;;;;;;42.5;34.6;;;;;;;1.95;83.48145;98347.55;;;;
2021/01/03 11:14:22;;;;;;;45.1;34.7;;;;;;;1.85;83.44043;98353.61;;;;
2021/01/03 11:24:20;;;;;;;56.2;40.9;;;;;;;2.03;82.96973;98337.23;;;;
2021/01/03 11:34:18;;;;;;;51.2;43.6;;;;;;;2.28;83.09375;98328.58;;;;
2021/01/03 11:44:16;;;;;;;40.9;35.7;;;;;;;2.2;83.18945;98323.76;;;;
2021/01/03 11:54:14;;;;;;;45.6;38.2;;;;;;;2.28;82.58496;98336.56;;;;
2021/01/03 12:04:12;;;;;;;101.8;67.2;;;;;;;2.53;82.93359;98344.61;;;;
2021/01/03 12:14:10;;;;;;;45.3;34.8;;;;;;;2.55;82.48145;98352.34;;;;
2021/01/03 12:24:08;;;;;;;41.5;34.2;;;;;;;2.83;81.07617;98327.94;;;;
2021/01/03 12:34:06;;;;;;;56.5;46.4;;;;;;;2.75;81.19434;98336.43;;;;
2021/01/03 12:44:04;;;;;;;42.6;37.7;;;;;;;2.88;81.1084;98335.92;;;;
2021/01/03 12:54:02;;;;;;;44.2;37.6;;;;;;;2.7;80.38672;98332.97;;;;
2021/01/03 13:04:02;;;;;;;48;35.2;;;;;;;2.81;80.80566;98339.92;;;;
2021/01/03 13:13:58;;;;;;;63.6;43.7;;;;;;;2.62;81.63281;98314.84;;;;
2021/01/03 13:23:56;;;;;;;45.9;35.6;;;;;;;2.78;81.01074;98330.58;;;;
2021/01/03 13:33:54;;;;;;;57.3;44.3;;;;;;;2.68;81.7207;98308.47;;;;
2021/01/03 13:43:52;;;;;;;54.1;44;;;;;;;2.81;81.42578;98310.64;;;;
2021/01/03 13:53:50;;;;;;;54.5;47.2;;;;;;;3.1;81.39063;98294.95;;;;
2021/01/03 14:03:48;;;;;;;60.7;46.7;;;;;;;3.14;77.94434;98304.81;;;;
2021/01/03 14:13:46;;;;;;;94.7;73.7;;;;;;;3.02;78.12109;98309.58;;;;
2021/01/03 14:23:44;;;;;;;62.4;51.4;;;;;;;2.91;79.50781;98314.13;;;;
2021/01/03 14:33:42;;;;;;;58.7;46.8;;;;;;;2.74;80.30664;98310.88;;;;
2021/01/03 14:43:43;;;;;;;62.9;50.3;;;;;;;2.61;80.7793;98311.38;;;;
2021/01/03 14:53:38;;;;;;;76.9;59.4;;;;;;;2.39;80.76172;98306.3;;;;
2021/01/03 15:03:36;;;;;;;71.3;58.7;;;;;;;1.8;82.50488;98305.77;;;;
2021/01/03 15:13:34;;;;;;;68.7;49.4;;;;;;;1.73;82.4248;98301.73;;;;
2021/01/03 15:23:32;;;;;;;80.8;57.8;;;;;;;1.51;83.06641;98304.52;;;;
2021/01/03 15:33:30;;;;;;;174.4;133.6;;;;;;;1.33;83.53809;98312.88;;;;
2021/01/03 15:43:28;;;;;;;61;53.7;;;;;;;1.16;84.90332;98315.67;;;;
2021/01/03 15:53:27;;;;;;;79.8;60.1;;;;;;;0.94;85.74023;98302.48;;;;
2021/01/03 16:03:24;;;;;;;73.5;57.4;;;;;;;0.96;85.17285;98297.74;;;;
2021/01/03 16:13:21;;;;;;;59.1;51.8;;;;;;;0.96;85.10742;98287.13;;;;
2021/01/03 16:23:26;;;;;;;81.4;58.4;;;;;;;0.93;85.60547;98308.06;;;;
2021/01/03 16:33:17;;;;;;;92.4;69.4;;;;;;;0.98;85.63672;98305.44;;;;
2021/01/03 16:43:15;;;;;;;85.7;63.8;;;;;;;1.07;85.22559;98292.52;;;;
2021/01/03 16:53:13;;;;;;;95.8;71.5;;;;;;;1;85.35645;98296.19;;;;
2021/01/03 17:03:11;;;;;;;93.6;71.9;;;;;;;0.9;85.55469;98308.56;;;;
2021/01/03 17:13:32;;;;;;;120.7;90.2;;;;;;;0.92;84.96582;98301.95;;;;
2021/01/03 17:23:12;;;;;;;128.4;114.4;;;;;;;0.71;85.56152;98305.46;;;;
2021/01/03 17:33:13;;;;;;;96.1;74.7;;;;;;;0.62;85.92773;98306.17;;;;
2021/01/03 17:43:06;;;;;;;119.1;99.1;;;;;;;0.75;86.54883;98295.95;;;;
2021/01/03 17:53:04;;;;;;;118.7;105.3;;;;;;;0.78;86.69922;98311.36;;;;
2021/01/03 18:02:57;;;;;;;108.5;88.2;;;;;;;0.8;86.69141;98325.16;;;;
2021/01/03 18:12:55;;;;;;;127.9;95.5;;;;;;;0.88;86.8291;98335.33;;;;
2021/01/03 18:22:53;;;;;;;111.9;88;;;;;;;0.87;86.74805;98351.48;;;;
2021/01/03 18:32:50;;;;;;;116.3;89.3;;;;;;;0.95;86.41211;98348.39;;;;
2021/01/03 18:42:48;;;;;;;264.3;213.9;;;;;;;0.95;86.50293;98343.89;;;;
2021/01/03 18:52:46;;;;;;;132.6;103.3;;;;;;;1.01;86.46973;98365.95;;;;
2021/01/03 19:02:44;;;;;;;115.5;95.3;;;;;;;1.12;86.24902;98380.12;;;;
2021/01/03 19:12:42;;;;;;;130.3;100.8;;;;;;;1.26;85.72656;98389.27;;;;
2021/01/03 19:22:40;;;;;;;123.4;92.7;;;;;;;1.31;85.38574;98395.45;;;;
2021/01/03 19:32:38;;;;;;;108.5;84.3;;;;;;;1.49;85.39844;98408.33;;;;
2021/01/03 19:42:36;;;;;;;107;90.9;;;;;;;1.57;85.4043;98412.38;;;;
2021/01/03 19:52:34;;;;;;;105.2;86.1;;;;;;;1.66;85.22363;98402.91;;;;
2021/01/03 20:02:31;;;;;;;110.6;84;;;;;;;1.71;85.80566;98410.89;;;;
2021/01/03 20:12:29;;;;;;;110;84.6;;;;;;;1.78;85.24609;98406.17;;;;
2021/01/03 20:22:27;;;;;;;96.6;72;;;;;;;1.51;85.86719;98432.79;;;;
2021/01/03 20:32:25;;;;;;;180.4;124.1;;;;;;;1.48;85.47266;98437.8;;;;
2021/01/03 20:42:23;;;;;;;111.2;80.4;;;;;;;1.63;85.31543;98445.91;;;;
2021/01/03 20:52:22;;;;;;;81.7;68.3;;;;;;;1.76;85.1875;98456.11;;;;
2021/01/03 21:02:19;;;;;;;104.5;88.1;;;;;;;1.58;86.26563;98451.17;;;;
2021/01/03 21:12:17;;;;;;;104.8;82.7;;;;;;;1.6;86.41211;98458.89;;;;
2021/01/03 21:22:16;;;;;;;101;83.4;;;;;;;1.69;86.19922;98468.8;;;;
2021/01/03 21:32:13;;;;;;;102.4;79.6;;;;;;;1.73;86.11914;98475.22;;;;
2021/01/03 21:42:11;;;;;;;107.4;78.7;;;;;;;1.77;85.4541;98484.25;;;;
2021/01/03 21:52:11;;;;;;;87.5;72.9;;;;;;;1.77;86.02734;98494.11;;;;
2021/01/03 22:02:17;;;;;;;109.8;81.9;;;;;;;1.78;85.80859;98504.47;;;;
2021/01/03 22:12:27;;;;;;;103.4;71.1;;;;;;;1.82;85.61719;98507.42;;;;
2021/01/03 22:22:37;;;;;;;125.6;100.7;;;;;;;1.8;85.58105;98525.48;;;;
2021/01/03 22:32:08;;;;;;;163.5;129;;;;;;;1.75;85.74805;98523.57;;;;
2021/01/03 22:42:10;;;;;;;155.9;118.8;;;;;;;1.85;85.0293;98522.86;;;;
2021/01/03 22:51:57;;;;;;;147.1;114.4;;;;;;;1.67;86.00586;98520.55;;;;
2021/01/03 23:01:56;;;;;;;136.1;108.3;;;;;;;1.68;85.6123;98506.23;;;;
2021/01/03 23:11:53;;;;;;;123.9;93.1;;;;;;;1.66;85.82813;98500.38;;;;
2021/01/03 23:21:51;;;;;;;117.2;88.1;;;;;;;1.65;86.07031;98496.91;;;;
2021/01/03 23:31:49;;;;;;;113.6;94.6;;;;;;;1.7;85.79492;98502.26;;;;
2021/01/03 23:41:47;;;;;;;101.6;80.8;;;;;;;1.6;85.97168;98488.89;;;;
2021/01/03 23:51:46;;;;;;;101.6;81.8;;;;;;;1.37;85.71582;98481.23;;;;
